createdAt,value
2023-04-24T00:00:07.650Z,9.23
2023-04-24T00:00:19.621Z,9.20
2023-04-24T00:00:31.586Z,9.21
2023-04-24T00:00:42.579Z,9.21
2023-04-24T00:00:53.578Z,9.21
2023-04-24T00:01:04.579Z,9.23
2023-04-24T00:01:15.572Z,9.23
2023-04-24T00:01:26.563Z,9.23
2023-04-24T00:01:37.571Z,9.23
2023-04-24T00:01:49.594Z,9.24
2023-04-24T00:02:01.611Z,9.23
2023-04-24T00:02:12.666Z,9.23
2023-04-24T00:02:23.737Z,9.23
2023-04-24T00:02:35.812Z,9.24
2023-04-24T00:02:47.844Z,9.21
2023-04-24T00:02:58.777Z,9.21
2023-04-24T00:03:10.677Z,9.23
2023-04-24T00:03:22.677Z,9.23
2023-04-24T00:03:34.766Z,9.23
2023-04-24T00:03:46.670Z,9.23
2023-04-24T00:03:58.821Z,9.21
2023-04-24T00:04:09.748Z,9.21
2023-04-24T00:04:20.989Z,9.20
2023-04-24T00:04:32.664Z,9.18
2023-04-24T00:04:44.751Z,9.18
2023-04-24T00:04:56.636Z,9.16
2023-04-24T00:05:08.640Z,9.16
2023-04-24T00:05:19.567Z,9.15
2023-04-24T00:05:30.582Z,9.15
2023-04-24T00:05:41.606Z,9.15
2023-04-24T00:05:53.578Z,9.13
2023-04-24T00:06:04.601Z,9.13
2023-04-24T00:06:15.592Z,9.13
2023-04-24T00:06:26.590Z,9.13
2023-04-24T00:06:38.606Z,9.13
2023-04-24T00:06:49.590Z,9.10
2023-04-24T00:07:00.579Z,9.12
2023-04-24T00:07:11.572Z,9.12
2023-04-24T00:07:22.576Z,9.12
2023-04-24T00:07:33.594Z,9.10
2023-04-24T00:07:44.585Z,9.10
2023-04-24T00:07:55.615Z,9.10
2023-04-24T00:08:06.604Z,9.12
2023-04-24T00:08:17.590Z,9.09
2023-04-24T00:08:28.597Z,9.10
2023-04-24T00:08:39.593Z,9.10
2023-04-24T00:08:50.597Z,9.09
2023-04-24T00:09:01.594Z,9.06
2023-04-24T00:09:12.605Z,9.06
2023-04-24T00:09:23.591Z,9.09
2023-04-24T00:09:34.593Z,9.06
2023-04-24T00:09:46.574Z,9.09
2023-04-24T00:09:57.578Z,9.09
2023-04-24T00:10:08.602Z,9.05
2023-04-24T00:10:19.595Z,9.09
2023-04-24T00:10:30.621Z,9.09
2023-04-24T00:10:42.584Z,9.06
2023-04-24T00:10:54.579Z,9.06
2023-04-24T00:11:05.579Z,9.06
2023-04-24T00:11:16.582Z,9.06
2023-04-24T00:11:27.579Z,9.05
2023-04-24T00:11:38.568Z,9.06
2023-04-24T00:11:49.567Z,9.05
2023-04-24T00:12:00.552Z,9.05
2023-04-24T00:12:11.554Z,9.05
2023-04-24T00:12:22.556Z,9.05
2023-04-24T00:12:33.566Z,9.06
2023-04-24T00:12:44.567Z,9.09
2023-04-24T00:12:55.569Z,9.06
2023-04-24T00:13:06.597Z,9.09
2023-04-24T00:13:18.600Z,9.06
2023-04-24T00:13:29.607Z,9.06
2023-04-24T00:13:41.601Z,9.05
2023-04-24T00:13:52.613Z,9.06
2023-04-24T00:14:04.579Z,9.05
2023-04-24T00:14:15.595Z,9.05
2023-04-24T00:14:26.602Z,9.05
2023-04-24T00:14:37.605Z,9.05
2023-04-24T00:14:48.604Z,9.04
2023-04-24T00:14:59.592Z,9.02
2023-04-24T00:15:11.600Z,9.02
2023-04-24T00:15:22.598Z,9.02
2023-04-24T00:15:34.616Z,9.02
2023-04-24T00:15:45.605Z,9.01
2023-04-24T00:15:56.606Z,9.01
2023-04-24T00:16:07.608Z,9.01
2023-04-24T00:16:19.600Z,8.97
2023-04-24T00:16:30.558Z,8.97
2023-04-24T00:16:41.659Z,8.97
2023-04-24T00:16:52.616Z,8.96
2023-04-24T00:17:03.667Z,8.94
2023-04-24T00:17:14.607Z,8.94
2023-04-24T00:17:25.611Z,8.93
2023-04-24T00:17:37.598Z,8.91
2023-04-24T00:17:49.627Z,8.91
2023-04-24T00:18:00.616Z,8.90
2023-04-24T00:18:12.583Z,8.91
2023-04-24T00:18:23.581Z,8.93
2023-04-24T00:18:34.589Z,8.90
2023-04-24T00:18:45.580Z,8.91
2023-04-24T00:18:56.589Z,8.91
2023-04-24T00:19:07.570Z,8.90
2023-04-24T00:19:18.582Z,8.91
2023-04-24T00:19:29.606Z,8.91
2023-04-24T00:19:40.788Z,8.88
2023-04-24T00:19:51.588Z,8.90
2023-04-24T00:20:02.590Z,8.90
2023-04-24T00:20:13.588Z,8.90
2023-04-24T00:20:24.572Z,8.88
2023-04-24T00:20:35.587Z,8.90
2023-04-24T00:20:46.581Z,8.90
2023-04-24T00:20:57.588Z,8.90
2023-04-24T00:21:08.584Z,8.88
2023-04-24T00:21:19.603Z,8.88
2023-04-24T00:21:30.601Z,8.87
2023-04-24T00:21:41.597Z,8.88
2023-04-24T00:21:52.605Z,8.86
2023-04-24T00:22:04.588Z,8.86
2023-04-24T00:22:15.597Z,8.84
2023-04-24T00:22:26.587Z,8.84
2023-04-24T00:22:37.614Z,8.83
2023-04-24T00:22:49.569Z,8.79
2023-04-24T00:23:00.607Z,8.81
2023-04-24T00:23:12.578Z,8.79
2023-04-24T00:23:23.570Z,8.78
2023-04-24T00:23:34.558Z,8.78
2023-04-24T00:23:45.561Z,8.78
2023-04-24T00:23:56.555Z,8.78
2023-04-24T00:24:07.569Z,8.76
2023-04-24T00:24:18.562Z,8.78
2023-04-24T00:24:29.563Z,8.76
2023-04-24T00:24:40.557Z,8.75
2023-04-24T00:24:51.554Z,8.75
2023-04-24T00:25:02.577Z,8.73
2023-04-24T00:25:13.579Z,8.72
2023-04-24T00:25:24.579Z,8.73
2023-04-24T00:25:35.567Z,8.71
2023-04-24T00:25:46.556Z,8.72
2023-04-24T00:25:57.551Z,8.71
2023-04-24T00:26:08.592Z,8.71
2023-04-24T00:26:19.597Z,8.68
2023-04-24T00:26:30.598Z,8.69
2023-04-24T00:26:41.592Z,8.71
2023-04-24T00:26:52.629Z,8.71
2023-04-24T00:27:04.570Z,8.71
2023-04-24T00:27:15.580Z,8.72
2023-04-24T00:27:26.577Z,8.71
2023-04-24T00:27:37.567Z,8.72
2023-04-24T00:27:48.555Z,8.72
2023-04-24T00:27:59.548Z,8.72
2023-04-24T00:28:10.641Z,8.73
2023-04-24T00:28:22.588Z,8.73
2023-04-24T00:28:33.584Z,8.73
2023-04-24T00:28:45.567Z,8.73
2023-04-24T00:28:56.568Z,8.73
2023-04-24T00:29:07.570Z,8.73
2023-04-24T00:29:18.563Z,8.75
2023-04-24T00:29:29.599Z,8.75
2023-04-24T00:29:40.867Z,8.75
2023-04-24T00:29:52.581Z,8.76
2023-04-24T00:30:03.614Z,8.75
2023-04-24T00:30:15.572Z,8.76
2023-04-24T00:30:26.561Z,8.76
2023-04-24T00:30:37.562Z,8.76
2023-04-24T00:30:48.556Z,8.78
2023-04-24T00:30:59.611Z,8.78
2023-04-24T00:31:11.572Z,8.79
2023-04-24T00:31:22.572Z,8.79
2023-04-24T00:31:33.602Z,8.81
2023-04-24T00:31:44.657Z,8.83
2023-04-24T00:31:56.722Z,8.81
2023-04-24T00:32:08.606Z,8.81
2023-04-24T00:32:20.662Z,8.83
2023-04-24T00:32:31.637Z,8.83
2023-04-24T00:32:43.652Z,8.83
2023-04-24T00:32:54.620Z,8.84
2023-04-24T00:33:06.592Z,8.84
2023-04-24T00:33:17.608Z,8.84
2023-04-24T00:33:28.583Z,8.86
2023-04-24T00:33:39.584Z,8.86
2023-04-24T00:33:50.561Z,8.87
2023-04-24T00:34:01.555Z,8.87
2023-04-24T00:34:12.555Z,8.86
2023-04-24T00:34:23.571Z,8.86
2023-04-24T00:34:34.565Z,8.86
2023-04-24T00:34:45.580Z,8.87
2023-04-24T00:34:56.569Z,8.86
2023-04-24T00:35:07.566Z,8.87
2023-04-24T00:35:18.567Z,8.86
2023-04-24T00:35:29.543Z,8.88
2023-04-24T00:35:40.548Z,8.86
2023-04-24T00:35:51.540Z,8.87
2023-04-24T00:36:02.541Z,8.87
2023-04-24T00:36:13.591Z,8.87
2023-04-24T00:36:24.584Z,8.87
2023-04-24T00:36:35.556Z,8.87
2023-04-24T00:36:46.636Z,8.87
2023-04-24T00:36:58.541Z,8.87
2023-04-24T00:37:09.634Z,8.88
2023-04-24T00:37:21.609Z,8.86
2023-04-24T00:37:32.593Z,8.86
2023-04-24T00:37:43.582Z,8.84
2023-04-24T00:37:54.580Z,8.87
2023-04-24T00:38:05.601Z,8.86
2023-04-24T00:38:16.605Z,8.86
2023-04-24T00:38:28.574Z,8.84
2023-04-24T00:38:39.595Z,8.86
2023-04-24T00:38:50.602Z,8.84
2023-04-24T00:39:01.591Z,8.84
2023-04-24T00:39:12.576Z,8.83
2023-04-24T00:39:23.576Z,8.84
2023-04-24T00:39:34.573Z,8.83
2023-04-24T00:39:46.576Z,8.83
2023-04-24T00:39:57.581Z,8.84
2023-04-24T00:40:08.570Z,8.83
2023-04-24T00:40:19.576Z,8.84
2023-04-24T00:40:30.567Z,8.84
2023-04-24T00:40:41.557Z,8.84
2023-04-24T00:40:52.574Z,8.83
2023-04-24T00:41:03.561Z,8.84
2023-04-24T00:41:14.568Z,8.83
2023-04-24T00:41:25.574Z,8.79
2023-04-24T00:41:36.557Z,8.84
2023-04-24T00:41:47.566Z,8.84
2023-04-24T00:41:58.554Z,8.84
2023-04-24T00:42:09.554Z,8.84
2023-04-24T00:42:20.542Z,8.86
2023-04-24T00:42:31.555Z,8.86
2023-04-24T00:42:42.551Z,8.84
2023-04-24T00:42:53.564Z,8.84
2023-04-24T00:43:04.569Z,8.84
2023-04-24T00:43:15.565Z,8.83
2023-04-24T00:43:26.564Z,8.84
2023-04-24T00:43:37.549Z,8.83
2023-04-24T00:43:48.547Z,8.83
2023-04-24T00:43:59.547Z,8.83
2023-04-24T00:44:10.547Z,8.83
2023-04-24T00:44:21.545Z,8.81
2023-04-24T00:44:32.573Z,8.83
2023-04-24T00:44:44.576Z,8.81
2023-04-24T00:44:55.568Z,8.83
2023-04-24T00:45:06.564Z,8.81
2023-04-24T00:45:17.575Z,8.81
2023-04-24T00:45:28.553Z,8.79
2023-04-24T00:45:39.560Z,8.81
2023-04-24T00:45:50.616Z,8.79
2023-04-24T00:46:02.686Z,8.81
2023-04-24T00:46:13.622Z,8.81
2023-04-24T00:46:24.633Z,8.81
2023-04-24T00:46:35.719Z,8.81
2023-04-24T00:46:47.609Z,8.81
2023-04-24T00:46:58.608Z,8.83
2023-04-24T00:47:09.592Z,8.83
2023-04-24T00:47:20.588Z,8.81
2023-04-24T00:47:31.580Z,8.81
2023-04-24T00:47:42.597Z,8.81
2023-04-24T00:47:53.658Z,8.79
2023-04-24T00:48:04.637Z,8.81
2023-04-24T00:48:16.662Z,8.81
2023-04-24T00:48:28.627Z,8.81
2023-04-24T00:48:40.573Z,8.83
2023-04-24T00:48:51.582Z,8.83
2023-04-24T00:49:02.583Z,8.83
2023-04-24T00:49:13.578Z,8.81
2023-04-24T00:49:24.573Z,8.81
2023-04-24T00:49:35.571Z,8.81
2023-04-24T00:49:46.571Z,8.83
2023-04-24T00:49:57.581Z,8.83
2023-04-24T00:50:08.571Z,8.83
2023-04-24T00:50:19.585Z,8.83
2023-04-24T00:50:30.578Z,8.81
2023-04-24T00:50:41.571Z,8.83
2023-04-24T00:50:52.577Z,8.83
2023-04-24T00:51:03.559Z,8.83
2023-04-24T00:51:14.555Z,8.81
2023-04-24T00:51:25.579Z,8.83
2023-04-24T00:51:36.567Z,8.83
2023-04-24T00:51:47.565Z,8.84
2023-04-24T00:51:58.570Z,8.83
2023-04-24T00:52:09.568Z,8.84
2023-04-24T00:52:20.569Z,8.83
2023-04-24T00:52:31.586Z,8.81
2023-04-24T00:52:42.662Z,8.81
2023-04-24T00:52:53.633Z,8.81
2023-04-24T00:53:04.633Z,8.83
2023-04-24T00:53:15.542Z,8.81
2023-04-24T00:53:26.575Z,8.81
2023-04-24T00:53:37.568Z,8.79
2023-04-24T00:53:48.548Z,8.78
2023-04-24T00:53:59.555Z,8.79
2023-04-24T00:54:10.546Z,8.79
2023-04-24T00:54:21.550Z,8.79
2023-04-24T00:54:32.641Z,8.79
2023-04-24T00:54:43.629Z,8.79
2023-04-24T00:54:55.596Z,8.79
2023-04-24T00:55:06.599Z,8.78
2023-04-24T00:55:17.592Z,8.78
2023-04-24T00:55:28.597Z,8.79
2023-04-24T00:55:39.606Z,8.78
2023-04-24T00:55:50.602Z,8.78
2023-04-24T00:56:02.602Z,8.78
2023-04-24T00:56:13.590Z,8.78
2023-04-24T00:56:24.585Z,8.78
2023-04-24T00:56:35.585Z,8.76
2023-04-24T00:56:46.588Z,8.76
2023-04-24T00:56:57.611Z,8.78
2023-04-24T00:57:09.583Z,8.78
2023-04-24T00:57:20.594Z,8.75
2023-04-24T00:57:31.615Z,8.75
2023-04-24T00:57:43.583Z,8.76
2023-04-24T00:57:54.576Z,8.75
2023-04-24T00:58:05.579Z,8.75
2023-04-24T00:58:16.592Z,8.73
2023-04-24T00:58:27.603Z,8.75
2023-04-24T00:58:39.612Z,8.73
2023-04-24T00:58:50.597Z,8.71
2023-04-24T00:59:02.581Z,8.72
2023-04-24T00:59:13.578Z,8.71
2023-04-24T00:59:24.563Z,8.72
2023-04-24T00:59:35.557Z,8.72
2023-04-24T00:59:46.550Z,8.72
2023-04-24T00:59:57.551Z,8.72
2023-04-24T01:00:08.549Z,8.72
2023-04-24T01:00:19.635Z,8.71
2023-04-24T01:00:31.594Z,8.71
2023-04-24T01:00:42.594Z,8.71
2023-04-24T01:00:53.582Z,8.71
2023-04-24T01:01:04.609Z,8.69
2023-04-24T01:01:16.593Z,8.71
2023-04-24T01:01:27.655Z,8.69
2023-04-24T01:01:38.646Z,8.71
2023-04-24T01:01:50.642Z,8.69
2023-04-24T01:02:02.617Z,8.69
2023-04-24T01:02:13.667Z,8.68
2023-04-24T01:02:25.778Z,8.68
2023-04-24T01:02:36.731Z,8.68
2023-04-24T01:02:47.881Z,8.68
2023-04-24T01:02:58.703Z,8.66
2023-04-24T01:03:09.663Z,8.68
2023-04-24T01:03:20.692Z,8.66
2023-04-24T01:03:31.814Z,8.66
2023-04-24T01:03:42.763Z,8.66
2023-04-24T01:03:54.823Z,8.65
2023-04-24T01:04:05.730Z,8.65
2023-04-24T01:04:16.660Z,8.62
2023-04-24T01:04:28.734Z,8.63
2023-04-24T01:04:39.791Z,8.62
2023-04-24T01:04:51.605Z,8.60
2023-04-24T01:05:03.598Z,8.60
2023-04-24T01:05:14.607Z,8.62
2023-04-24T01:05:25.611Z,8.62
2023-04-24T01:05:37.572Z,8.65
2023-04-24T01:05:48.574Z,8.63
2023-04-24T01:05:59.587Z,8.63
2023-04-24T01:06:10.575Z,8.60
2023-04-24T01:06:21.573Z,8.60
2023-04-24T01:06:32.597Z,8.60
2023-04-24T01:06:44.603Z,8.60
2023-04-24T01:06:55.600Z,8.55
2023-04-24T01:07:06.593Z,8.57
2023-04-24T01:07:17.589Z,8.57
2023-04-24T01:07:28.588Z,8.55
2023-04-24T01:07:39.604Z,8.55
2023-04-24T01:07:50.602Z,8.54
2023-04-24T01:08:01.602Z,8.53
2023-04-24T01:08:12.595Z,8.54
2023-04-24T01:08:23.579Z,8.54
2023-04-24T01:08:34.576Z,8.51
2023-04-24T01:08:45.567Z,8.51
2023-04-24T01:08:56.584Z,8.48
2023-04-24T01:09:07.587Z,8.50
2023-04-24T01:09:18.577Z,8.50
2023-04-24T01:09:29.598Z,8.50
2023-04-24T01:09:40.726Z,8.48
2023-04-24T01:09:52.610Z,8.47
2023-04-24T01:10:04.639Z,8.48
2023-04-24T01:10:16.609Z,8.45
2023-04-24T01:10:27.594Z,8.45
2023-04-24T01:10:38.601Z,8.45
2023-04-24T01:10:50.607Z,8.44
2023-04-24T01:11:01.595Z,8.44
2023-04-24T01:11:12.591Z,8.42
2023-04-24T01:11:23.615Z,8.39
2023-04-24T01:11:34.593Z,8.42
2023-04-24T01:11:45.600Z,8.39
2023-04-24T01:11:56.611Z,8.39
2023-04-24T01:12:07.604Z,8.37
2023-04-24T01:12:19.607Z,8.37
2023-04-24T01:12:30.588Z,8.37
2023-04-24T01:12:41.578Z,8.37
2023-04-24T01:12:52.583Z,8.36
2023-04-24T01:13:03.593Z,8.36
2023-04-24T01:13:14.581Z,8.36
2023-04-24T01:13:25.600Z,8.35
2023-04-24T01:13:36.585Z,8.36
2023-04-24T01:13:47.595Z,8.36
2023-04-24T01:13:58.595Z,8.35
2023-04-24T01:14:09.579Z,8.33
2023-04-24T01:14:20.557Z,8.35
2023-04-24T01:14:31.575Z,8.33
2023-04-24T01:14:42.555Z,8.35
2023-04-24T01:14:53.637Z,8.33
2023-04-24T01:15:04.615Z,8.32
2023-04-24T01:15:16.616Z,8.33
2023-04-24T01:15:27.597Z,8.32
2023-04-24T01:15:38.599Z,8.32
2023-04-24T01:15:49.658Z,8.30
2023-04-24T01:16:00.638Z,8.30
2023-04-24T01:16:11.592Z,8.30
2023-04-24T01:16:22.669Z,8.30
2023-04-24T01:16:34.587Z,8.29
2023-04-24T01:16:45.585Z,8.28
2023-04-24T01:16:56.583Z,8.29
2023-04-24T01:17:07.591Z,8.29
2023-04-24T01:17:18.604Z,8.28
2023-04-24T01:17:29.613Z,8.28
2023-04-24T01:17:41.602Z,8.26
2023-04-24T01:17:52.608Z,8.22
2023-04-24T01:18:03.771Z,8.26
2023-04-24T01:18:15.622Z,8.22
2023-04-24T01:18:27.601Z,8.21
2023-04-24T01:18:38.598Z,8.21
2023-04-24T01:18:49.599Z,8.21
2023-04-24T01:19:00.621Z,8.20
2023-04-24T01:19:12.586Z,8.18
2023-04-24T01:19:24.579Z,8.20
2023-04-24T01:19:35.565Z,8.20
2023-04-24T01:19:46.617Z,8.20
2023-04-24T01:19:58.590Z,8.18
2023-04-24T01:20:09.592Z,8.18
2023-04-24T01:20:20.578Z,8.18
2023-04-24T01:20:31.576Z,8.20
2023-04-24T01:20:42.602Z,8.17
2023-04-24T01:20:53.593Z,8.18
2023-04-24T01:21:04.608Z,8.17
2023-04-24T01:21:15.592Z,8.18
2023-04-24T01:21:26.593Z,8.17
2023-04-24T01:21:37.587Z,8.15
2023-04-24T01:21:48.587Z,8.17
2023-04-24T01:21:59.570Z,8.15
2023-04-24T01:22:10.546Z,8.17
2023-04-24T01:22:21.579Z,8.17
2023-04-24T01:22:32.562Z,8.14
2023-04-24T01:22:43.597Z,8.15
2023-04-24T01:22:54.606Z,8.15
2023-04-24T01:23:06.601Z,8.14
2023-04-24T01:23:17.593Z,8.15
2023-04-24T01:23:28.601Z,8.15
2023-04-24T01:23:39.584Z,8.15
2023-04-24T01:23:50.585Z,8.15
2023-04-24T01:24:02.588Z,8.14
2023-04-24T01:24:13.586Z,8.12
2023-04-24T01:24:24.593Z,8.12
2023-04-24T01:24:35.586Z,8.12
2023-04-24T01:24:47.588Z,8.11
2023-04-24T01:24:58.608Z,8.12
2023-04-24T01:25:10.588Z,8.12
2023-04-24T01:25:21.600Z,8.10
2023-04-24T01:25:32.598Z,8.12
2023-04-24T01:25:43.595Z,8.12
2023-04-24T01:25:54.602Z,8.12
2023-04-24T01:26:05.592Z,8.11
2023-04-24T01:26:16.605Z,8.12
2023-04-24T01:26:28.580Z,8.11
2023-04-24T01:26:39.576Z,8.11
2023-04-24T01:26:50.580Z,8.12
2023-04-24T01:27:01.593Z,8.12
2023-04-24T01:27:13.596Z,8.11
2023-04-24T01:27:24.581Z,8.12
2023-04-24T01:27:35.568Z,8.11
2023-04-24T01:27:46.581Z,8.12
2023-04-24T01:27:57.568Z,8.14
2023-04-24T01:28:08.574Z,8.14
2023-04-24T01:28:19.580Z,8.12
2023-04-24T01:28:30.568Z,8.12
2023-04-24T01:28:41.587Z,8.11
2023-04-24T01:28:52.564Z,8.12
2023-04-24T01:29:03.559Z,8.11
2023-04-24T01:29:14.570Z,8.11
2023-04-24T01:29:25.565Z,8.12
2023-04-24T01:29:36.560Z,8.11
2023-04-24T01:29:47.557Z,8.11
2023-04-24T01:29:58.590Z,8.11
2023-04-24T01:30:10.601Z,8.12
2023-04-24T01:30:21.579Z,8.12
2023-04-24T01:30:32.619Z,8.11
2023-04-24T01:30:44.577Z,8.12
2023-04-24T01:30:55.598Z,8.12
2023-04-24T01:31:06.667Z,8.12
2023-04-24T01:31:17.603Z,8.14
2023-04-24T01:31:28.770Z,8.14
2023-04-24T01:31:40.664Z,8.14
2023-04-24T01:31:52.573Z,8.14
2023-04-24T01:32:03.582Z,8.14
2023-04-24T01:32:14.585Z,8.14
2023-04-24T01:32:25.641Z,8.14
2023-04-24T01:32:36.580Z,8.14
2023-04-24T01:32:47.619Z,8.12
2023-04-24T01:32:59.659Z,8.12
2023-04-24T01:33:11.620Z,8.11
2023-04-24T01:33:23.589Z,8.10
2023-04-24T01:33:34.573Z,8.08
2023-04-24T01:33:45.560Z,8.10
2023-04-24T01:33:56.564Z,8.11
2023-04-24T01:34:07.568Z,8.08
2023-04-24T01:34:18.599Z,8.08
2023-04-24T01:34:29.597Z,8.08
2023-04-24T01:34:40.588Z,8.08
2023-04-24T01:34:51.589Z,8.07
2023-04-24T01:35:03.592Z,8.07
2023-04-24T01:35:14.571Z,8.07
2023-04-24T01:35:25.574Z,8.07
2023-04-24T01:35:36.566Z,8.07
2023-04-24T01:35:47.566Z,8.07
2023-04-24T01:35:58.564Z,8.08
2023-04-24T01:36:09.556Z,8.07
2023-04-24T01:36:20.563Z,8.07
2023-04-24T01:36:31.566Z,8.07
2023-04-24T01:36:42.561Z,8.04
2023-04-24T01:36:53.565Z,8.03
2023-04-24T01:37:04.552Z,8.02
2023-04-24T01:37:15.635Z,8.04
2023-04-24T01:37:27.601Z,8.02
2023-04-24T01:37:38.592Z,8.02
2023-04-24T01:37:49.611Z,8.02
2023-04-24T01:38:00.608Z,8.02
2023-04-24T01:38:12.583Z,8.02
2023-04-24T01:38:23.567Z,8.00
2023-04-24T01:38:34.591Z,8.00
2023-04-24T01:38:45.587Z,8.00
2023-04-24T01:38:56.598Z,7.99
2023-04-24T01:39:08.586Z,7.99
2023-04-24T01:39:19.584Z,7.99
2023-04-24T01:39:30.571Z,7.97
2023-04-24T01:39:41.900Z,7.97
2023-04-24T01:39:52.558Z,7.96
2023-04-24T01:40:03.565Z,7.94
2023-04-24T01:40:14.575Z,7.96
2023-04-24T01:40:25.588Z,7.94
2023-04-24T01:40:37.591Z,7.94
2023-04-24T01:40:48.603Z,7.94
2023-04-24T01:40:59.602Z,7.94
2023-04-24T01:41:10.626Z,7.93
2023-04-24T01:41:22.593Z,7.93
2023-04-24T01:41:34.581Z,7.93
2023-04-24T01:41:46.586Z,7.92
2023-04-24T01:41:57.593Z,7.93
2023-04-24T01:42:08.592Z,7.89
2023-04-24T01:42:19.590Z,7.90
2023-04-24T01:42:30.582Z,7.89
2023-04-24T01:42:41.572Z,7.89
2023-04-24T01:42:52.564Z,7.89
2023-04-24T01:43:03.583Z,7.89
2023-04-24T01:43:14.584Z,7.87
2023-04-24T01:43:25.580Z,7.85
2023-04-24T01:43:36.575Z,7.87
2023-04-24T01:43:47.558Z,7.85
2023-04-24T01:43:58.646Z,7.87
2023-04-24T01:44:10.612Z,7.85
2023-04-24T01:44:22.592Z,7.84
2023-04-24T01:44:33.616Z,7.85
2023-04-24T01:44:44.590Z,7.84
2023-04-24T01:44:55.587Z,7.84
2023-04-24T01:45:06.598Z,7.84
2023-04-24T01:45:17.594Z,7.82
2023-04-24T01:45:29.592Z,7.82
2023-04-24T01:45:40.587Z,7.82
2023-04-24T01:45:51.580Z,7.82
2023-04-24T01:46:02.578Z,7.81
2023-04-24T01:46:13.616Z,7.82
2023-04-24T01:46:25.645Z,7.81
2023-04-24T01:46:37.714Z,7.79
2023-04-24T01:46:49.674Z,7.81
2023-04-24T01:47:00.701Z,7.79
2023-04-24T01:47:11.582Z,7.79
2023-04-24T01:47:22.643Z,7.81
2023-04-24T01:47:33.619Z,7.79
2023-04-24T01:47:44.625Z,7.77
2023-04-24T01:47:56.660Z,7.78
2023-04-24T01:48:07.625Z,7.77
2023-04-24T01:48:19.622Z,7.77
2023-04-24T01:48:31.588Z,7.78
2023-04-24T01:48:42.602Z,7.75
2023-04-24T01:48:53.593Z,7.75
2023-04-24T01:49:04.589Z,7.75
2023-04-24T01:49:15.581Z,7.74
2023-04-24T01:49:26.587Z,7.74
2023-04-24T01:49:37.577Z,7.74
2023-04-24T01:49:48.584Z,7.72
2023-04-24T01:49:59.600Z,7.72
2023-04-24T01:50:10.614Z,7.75
2023-04-24T01:50:21.591Z,7.74
2023-04-24T01:50:33.580Z,7.75
2023-04-24T01:50:44.581Z,7.74
2023-04-24T01:50:55.575Z,7.74
2023-04-24T01:51:06.572Z,7.72
2023-04-24T01:51:17.561Z,7.72
2023-04-24T01:51:28.567Z,7.74
2023-04-24T01:51:39.565Z,7.72
2023-04-24T01:51:50.594Z,7.71
2023-04-24T01:52:01.577Z,7.71
2023-04-24T01:52:13.577Z,7.74
2023-04-24T01:52:24.580Z,7.71
2023-04-24T01:52:35.583Z,7.71
2023-04-24T01:52:46.603Z,7.71
2023-04-24T01:52:57.595Z,7.72
2023-04-24T01:53:08.621Z,7.71
2023-04-24T01:53:20.622Z,7.72
2023-04-24T01:53:32.577Z,7.72
2023-04-24T01:53:43.599Z,7.74
2023-04-24T01:53:54.602Z,7.72
2023-04-24T01:54:05.590Z,7.72
2023-04-24T01:54:16.593Z,7.72
2023-04-24T01:54:27.600Z,7.71
2023-04-24T01:54:38.594Z,7.71
2023-04-24T01:54:49.569Z,7.72
2023-04-24T01:55:00.571Z,7.71
2023-04-24T01:55:12.599Z,7.71
2023-04-24T01:55:23.593Z,7.69
2023-04-24T01:55:34.586Z,7.71
2023-04-24T01:55:45.579Z,7.69
2023-04-24T01:55:56.589Z,7.67
2023-04-24T01:56:07.587Z,7.67
2023-04-24T01:56:18.589Z,7.67
2023-04-24T01:56:29.602Z,7.66
2023-04-24T01:56:40.620Z,7.69
2023-04-24T01:56:52.582Z,7.67
2023-04-24T01:57:03.752Z,7.66
2023-04-24T01:57:14.573Z,7.69
2023-04-24T01:57:25.559Z,7.69
2023-04-24T01:57:36.553Z,7.69
2023-04-24T01:57:47.549Z,7.67
2023-04-24T01:57:58.640Z,7.67
2023-04-24T01:58:10.603Z,7.71
2023-04-24T01:58:22.575Z,7.69
2023-04-24T01:58:33.562Z,7.71
2023-04-24T01:58:44.577Z,7.69
2023-04-24T01:58:55.581Z,7.69
2023-04-24T01:59:06.592Z,7.69
2023-04-24T01:59:17.587Z,7.71
2023-04-24T01:59:28.587Z,7.69
2023-04-24T01:59:39.593Z,7.69
2023-04-24T01:59:50.583Z,7.71
2023-04-24T02:00:01.570Z,7.69
2023-04-24T02:00:12.579Z,7.69
2023-04-24T02:00:23.577Z,7.71
2023-04-24T02:00:34.611Z,7.67
2023-04-24T02:00:46.625Z,7.69
2023-04-24T02:00:57.579Z,7.71
2023-04-24T02:01:08.607Z,7.67
2023-04-24T02:01:20.707Z,7.69
2023-04-24T02:01:32.577Z,7.66
2023-04-24T02:01:43.582Z,7.67
2023-04-24T02:01:54.592Z,7.67
2023-04-24T02:02:05.627Z,7.67
2023-04-24T02:02:17.677Z,7.69
2023-04-24T02:02:28.822Z,7.67
2023-04-24T02:02:40.722Z,7.66
2023-04-24T02:02:51.676Z,7.66
2023-04-24T02:03:02.645Z,7.67
2023-04-24T02:03:13.729Z,7.67
2023-04-24T02:03:24.821Z,7.69
2023-04-24T02:03:36.826Z,7.69
2023-04-24T02:03:48.782Z,7.67
2023-04-24T02:04:00.688Z,7.69
2023-04-24T02:04:11.735Z,7.69
2023-04-24T02:04:23.682Z,7.69
2023-04-24T02:04:35.572Z,7.69
2023-04-24T02:04:46.568Z,7.67
2023-04-24T02:04:57.561Z,7.63
2023-04-24T02:05:08.555Z,7.66
2023-04-24T02:05:19.557Z,7.67
2023-04-24T02:05:30.553Z,7.67
2023-04-24T02:05:41.658Z,7.66
2023-04-24T02:05:53.616Z,7.66
2023-04-24T02:06:05.590Z,7.66
2023-04-24T02:06:16.589Z,7.66
2023-04-24T02:06:27.603Z,7.67
2023-04-24T02:06:39.574Z,7.67
2023-04-24T02:06:50.568Z,7.66
2023-04-24T02:07:01.548Z,7.66
2023-04-24T02:07:12.646Z,7.67
2023-04-24T02:07:24.609Z,7.69
2023-04-24T02:07:35.605Z,7.69
2023-04-24T02:07:46.611Z,7.67
2023-04-24T02:07:57.605Z,7.67
2023-04-24T02:08:08.603Z,7.63
2023-04-24T02:08:19.599Z,7.67
2023-04-24T02:08:31.567Z,7.66
2023-04-24T02:08:42.565Z,7.66
2023-04-24T02:08:53.607Z,7.66
2023-04-24T02:09:05.595Z,7.66
2023-04-24T02:09:16.609Z,7.66
2023-04-24T02:09:27.603Z,7.66
2023-04-24T02:09:38.597Z,7.67
2023-04-24T02:09:50.577Z,7.67
2023-04-24T02:10:01.577Z,7.67
2023-04-24T02:10:12.559Z,7.67
2023-04-24T02:10:23.576Z,7.69
2023-04-24T02:10:34.555Z,7.69
2023-04-24T02:10:45.633Z,7.67
2023-04-24T02:10:57.572Z,7.67
2023-04-24T02:11:08.586Z,7.67
2023-04-24T02:11:19.597Z,7.67
2023-04-24T02:11:30.598Z,7.67
2023-04-24T02:11:41.575Z,7.66
2023-04-24T02:11:52.550Z,7.63
2023-04-24T02:12:03.646Z,7.66
2023-04-24T02:12:15.618Z,7.62
2023-04-24T02:12:26.606Z,7.62
2023-04-24T02:12:37.599Z,7.59
2023-04-24T02:12:48.603Z,7.60
2023-04-24T02:13:00.596Z,7.60
2023-04-24T02:13:11.615Z,7.59
2023-04-24T02:13:22.609Z,7.59
2023-04-24T02:13:34.581Z,7.60
2023-04-24T02:13:45.607Z,7.59
2023-04-24T02:13:56.592Z,7.60
2023-04-24T02:14:07.579Z,7.59
2023-04-24T02:14:18.580Z,7.59
2023-04-24T02:14:29.579Z,7.60
2023-04-24T02:14:40.576Z,7.59
2023-04-24T02:14:51.585Z,7.60
2023-04-24T02:15:02.612Z,7.59
2023-04-24T02:15:13.590Z,7.59
2023-04-24T02:15:24.595Z,7.59
2023-04-24T02:15:35.587Z,7.60
2023-04-24T02:15:46.584Z,7.59
2023-04-24T02:15:57.610Z,7.59
2023-04-24T02:16:09.644Z,7.59
2023-04-24T02:16:20.604Z,7.62
2023-04-24T02:16:31.706Z,7.60
2023-04-24T02:16:43.635Z,7.60
2023-04-24T02:16:54.713Z,7.62
2023-04-24T02:17:06.612Z,7.62
2023-04-24T02:17:18.574Z,7.66
2023-04-24T02:17:29.584Z,7.66
2023-04-24T02:17:40.658Z,7.66
2023-04-24T02:17:52.671Z,7.67
2023-04-24T02:18:03.613Z,7.69
2023-04-24T02:18:15.600Z,7.71
2023-04-24T02:18:26.599Z,7.71
2023-04-24T02:18:37.602Z,7.72
2023-04-24T02:18:48.604Z,7.74
2023-04-24T02:18:59.607Z,7.75
2023-04-24T02:19:10.598Z,7.75
2023-04-24T02:19:22.604Z,7.75
2023-04-24T02:19:33.602Z,7.77
2023-04-24T02:19:44.754Z,7.75
2023-04-24T02:19:56.594Z,7.78
2023-04-24T02:20:07.633Z,7.77
2023-04-24T02:20:19.623Z,7.79
2023-04-24T02:20:31.579Z,7.81
2023-04-24T02:20:42.581Z,7.81
2023-04-24T02:20:53.606Z,7.82
2023-04-24T02:21:04.591Z,7.84
2023-04-24T02:21:15.584Z,7.84
2023-04-24T02:21:26.571Z,7.85
2023-04-24T02:21:37.579Z,7.85
2023-04-24T02:21:48.580Z,7.87
2023-04-24T02:21:59.587Z,7.89
2023-04-24T02:22:10.582Z,7.89
2023-04-24T02:22:21.572Z,7.89
2023-04-24T02:22:32.574Z,7.89
2023-04-24T02:22:43.574Z,7.90
2023-04-24T02:22:54.572Z,7.90
2023-04-24T02:23:05.561Z,7.90
2023-04-24T02:23:16.567Z,7.92
2023-04-24T02:23:27.571Z,7.92
2023-04-24T02:23:38.553Z,7.90
2023-04-24T02:23:49.555Z,7.92
2023-04-24T02:24:00.648Z,7.92
2023-04-24T02:24:12.616Z,7.92
2023-04-24T02:24:24.623Z,7.93
2023-04-24T02:24:36.591Z,7.92
2023-04-24T02:24:47.605Z,7.92
2023-04-24T02:24:58.591Z,7.94
2023-04-24T02:25:09.596Z,7.93
2023-04-24T02:25:20.588Z,7.94
2023-04-24T02:25:31.586Z,7.94
2023-04-24T02:25:42.563Z,7.92
2023-04-24T02:25:53.559Z,7.93
2023-04-24T02:26:04.578Z,7.94
2023-04-24T02:26:15.601Z,7.94
2023-04-24T02:26:26.597Z,7.96
2023-04-24T02:26:37.598Z,7.93
2023-04-24T02:26:48.579Z,7.96
2023-04-24T02:26:59.580Z,7.96
2023-04-24T02:27:10.577Z,7.96
2023-04-24T02:27:21.580Z,7.96
2023-04-24T02:27:32.564Z,7.97
2023-04-24T02:27:43.581Z,7.97
2023-04-24T02:27:54.583Z,7.96
2023-04-24T02:28:05.582Z,7.96
2023-04-24T02:28:16.584Z,7.97
2023-04-24T02:28:27.584Z,7.97
2023-04-24T02:28:38.627Z,7.96
2023-04-24T02:28:50.591Z,7.99
2023-04-24T02:29:01.601Z,7.99